sensor_id;sensor_type;location;lat;lon;timestamp;temperature;humidity
2997;DHT22;1508;48.744;9.110;2022-09-09T00:00:25;15.30;99.90
2997;DHT22;1508;48.744;9.110;2022-09-09T00:03:18;15.30;99.90
2997;DHT22;1508;48.744;9.110;2022-09-09T00:06:19;15.30;99.90
2997;DHT22;1508;48.744;9.110;2022-09-09T00:09:21;15.30;99.90
2997;DHT22;1508;48.744;9.110;2022-09-09T00:12:14;15.20;99.90
2997;DHT22;1508;48.744;9.110;2022-09-09T00:15:18;15.30;99.90
2997;DHT22;1508;48.744;9.110;2022-09-09T00:21:01;15.30;99.90
2997;DHT22;1508;48.744;9.110;2022-09-09T00:23:51;15.30;99.90
2997;DHT22;1508;48.744;9.110;2022-09-09T00:26:48;15.30;99.90
2997;DHT22;1508;48.744;9.110;2022-09-09T00:29:44;15.40;99.90
2997;DHT22;1508;48.744;9.110;2022-09-09T00:32:32;15.40;99.90
2997;DHT22;1508;48.744;9.110;2022-09-09T00:35:25;15.50;99.90
2997;DHT22;1508;48.744;9.110;2022-09-09T00:44:38;15.70;99.90
2997;DHT22;1508;48.744;9.110;2022-09-09T00:47:46;15.70;99.90
2997;DHT22;1508;48.744;9.110;2022-09-09T00:53:58;15.80;99.90
2997;DHT22;1508;48.744;9.110;2022-09-09T01:08:48;16.00;99.90
2997;DHT22;1508;48.744;9.110;2022-09-09T01:14:56;16.00;99.90
2997;DHT22;1508;48.744;9.110;2022-09-09T01:17:49;16.10;99.90
2997;DHT22;1508;48.744;9.110;2022-09-09T01:26:45;16.00;99.90
2997;DHT22;1508;48.744;9.110;2022-09-09T01:29:32;16.00;99.90
2997;DHT22;1508;48.744;9.110;2022-09-09T01:38:31;15.90;99.90
2997;DHT22;1508;48.744;9.110;2022-09-09T01:41:18;15.90;99.90
2997;DHT22;1508;48.744;9.110;2022-09-09T01:44:05;15.90;99.90
2997;DHT22;1508;48.744;9.110;2022-09-09T01:46:51;15.80;99.90
2997;DHT22;1508;48.744;9.110;2022-09-09T01:49:37;15.80;99.90
2997;DHT22;1508;48.744;9.110;2022-09-09T01:52:23;15.80;99.90
2997;DHT22;1508;48.744;9.110;2022-09-09T01:55:09;15.80;99.90
2997;DHT22;1508;48.744;9.110;2022-09-09T01:58:23;15.70;99.90
2997;DHT22;1508;48.744;9.110;2022-09-09T02:07:29;15.50;99.90
2997;DHT22;1508;48.744;9.110;2022-09-09T02:10:24;15.40;99.90
2997;DHT22;1508;48.744;9.110;2022-09-09T02:13:18;15.40;99.90
2997;DHT22;1508;48.744;9.110;2022-09-09T02:19:24;15.40;99.90
2997;DHT22;1508;48.744;9.110;2022-09-09T02:22:11;15.30;99.90
2997;DHT22;1508;48.744;9.110;2022-09-09T02:24:59;15.30;99.90
2997;DHT22;1508;48.744;9.110;2022-09-09T02:27:46;15.30;99.90
2997;DHT22;1508;48.744;9.110;2022-09-09T02:30:34;15.30;99.90
2997;DHT22;1508;48.744;9.110;2022-09-09T02:33:25;15.30;99.90
2997;DHT22;1508;48.744;9.110;2022-09-09T02:36:14;15.30;99.90
2997;DHT22;1508;48.744;9.110;2022-09-09T02:39:01;15.20;99.90
2997;DHT22;1508;48.744;9.110;2022-09-09T02:41:48;15.10;99.90
2997;DHT22;1508;48.744;9.110;2022-09-09T02:44:34;15.10;99.90
2997;DHT22;1508;48.744;9.110;2022-09-09T02:47:33;15.10;99.90
2997;DHT22;1508;48.744;9.110;2022-09-09T02:50:27;15.00;99.90
2997;DHT22;1508;48.744;9.110;2022-09-09T02:53:21;15.00;99.90
2997;DHT22;1508;48.744;9.110;2022-09-09T02:56:16;14.90;99.90
2997;DHT22;1508;48.744;9.110;2022-09-09T02:59:04;14.80;99.90
2997;DHT22;1508;48.744;9.110;2022-09-09T03:01:50;14.80;99.90
2997;DHT22;1508;48.744;9.110;2022-09-09T03:04:37;14.80;99.90
2997;DHT22;1508;48.744;9.110;2022-09-09T03:07:22;14.80;99.90
2997;DHT22;1508;48.744;9.110;2022-09-09T03:10:08;14.80;99.90
2997;DHT22;1508;48.744;9.110;2022-09-09T03:12:54;14.90;99.90
2997;DHT22;1508;48.744;9.110;2022-09-09T03:15:40;14.90;99.90
2997;DHT22;1508;48.744;9.110;2022-09-09T03:18:27;14.90;99.90
2997;DHT22;1508;48.744;9.110;2022-09-09T03:21:12;14.90;99.90
2997;DHT22;1508;48.744;9.110;2022-09-09T03:23:59;14.90;99.90
2997;DHT22;1508;48.744;9.110;2022-09-09T03:26:45;14.90;99.90
2997;DHT22;1508;48.744;9.110;2022-09-09T03:29:30;14.80;99.90
2997;DHT22;1508;48.744;9.110;2022-09-09T03:32:17;14.80;99.90
2997;DHT22;1508;48.744;9.110;2022-09-09T03:35:03;14.80;99.90
2997;DHT22;1508;48.744;9.110;2022-09-09T03:37:49;14.80;99.90
2997;DHT22;1508;48.744;9.110;2022-09-09T03:40:35;14.80;99.90
2997;DHT22;1508;48.744;9.110;2022-09-09T03:43:22;14.80;99.90
2997;DHT22;1508;48.744;9.110;2022-09-09T03:46:07;14.80;99.90
2997;DHT22;1508;48.744;9.110;2022-09-09T03:48:53;14.80;99.90
2997;DHT22;1508;48.744;9.110;2022-09-09T03:51:39;14.80;99.90
2997;DHT22;1508;48.744;9.110;2022-09-09T03:54:25;14.90;99.90
2997;DHT22;1508;48.744;9.110;2022-09-09T03:57:11;14.80;99.90
2997;DHT22;1508;48.744;9.110;2022-09-09T03:59:57;14.90;99.90
2997;DHT22;1508;48.744;9.110;2022-09-09T04:02:43;14.90;99.90
2997;DHT22;1508;48.744;9.110;2022-09-09T04:05:29;14.90;99.90
2997;DHT22;1508;48.744;9.110;2022-09-09T04:08:14;14.90;99.90
2997;DHT22;1508;48.744;9.110;2022-09-09T04:11:01;14.90;99.90
2997;DHT22;1508;48.744;9.110;2022-09-09T04:13:47;14.90;99.90
2997;DHT22;1508;48.744;9.110;2022-09-09T04:16:33;14.90;99.90
2997;DHT22;1508;48.744;9.110;2022-09-09T04:19:19;14.90;99.90
2997;DHT22;1508;48.744;9.110;2022-09-09T04:22:05;14.90;99.90
2997;DHT22;1508;48.744;9.110;2022-09-09T04:24:54;14.90;99.90
2997;DHT22;1508;48.744;9.110;2022-09-09T04:27:40;14.90;99.90
2997;DHT22;1508;48.744;9.110;2022-09-09T04:30:25;15.00;99.90
2997;DHT22;1508;48.744;9.110;2022-09-09T04:33:12;15.00;99.90
2997;DHT22;1508;48.744;9.110;2022-09-09T04:35:58;15.00;99.90
2997;DHT22;1508;48.744;9.110;2022-09-09T04:38:44;15.00;99.90
2997;DHT22;1508;48.744;9.110;2022-09-09T04:41:30;15.00;99.90
2997;DHT22;1508;48.744;9.110;2022-09-09T04:44:15;15.00;99.90
2997;DHT22;1508;48.744;9.110;2022-09-09T04:47:01;15.00;99.90
2997;DHT22;1508;48.744;9.110;2022-09-09T04:49:47;14.90;99.90
2997;DHT22;1508;48.744;9.110;2022-09-09T04:52:36;14.90;99.90
2997;DHT22;1508;48.744;9.110;2022-09-09T04:55:21;15.00;99.90
2997;DHT22;1508;48.744;9.110;2022-09-09T04:58:08;14.90;99.90
2997;DHT22;1508;48.744;9.110;2022-09-09T05:00:54;14.90;99.90
2997;DHT22;1508;48.744;9.110;2022-09-09T05:03:40;14.90;99.90
2997;DHT22;1508;48.744;9.110;2022-09-09T05:06:26;14.90;99.90
2997;DHT22;1508;48.744;9.110;2022-09-09T05:09:12;14.90;99.90
2997;DHT22;1508;48.744;9.110;2022-09-09T05:11:57;14.90;99.90
2997;DHT22;1508;48.744;9.110;2022-09-09T05:14:43;14.90;99.90
2997;DHT22;1508;48.744;9.110;2022-09-09T05:17:29;14.90;99.90
2997;DHT22;1508;48.744;9.110;2022-09-09T05:20:15;15.00;99.90
2997;DHT22;1508;48.744;9.110;2022-09-09T05:23:01;15.10;99.90
2997;DHT22;1508;48.744;9.110;2022-09-09T05:25:58;15.20;99.90
2997;DHT22;1508;48.744;9.110;2022-09-09T05:28:44;15.20;99.90
2997;DHT22;1508;48.744;9.110;2022-09-09T05:31:30;15.30;99.90
2997;DHT22;1508;48.744;9.110;2022-09-09T05:34:16;15.50;99.90
2997;DHT22;1508;48.744;9.110;2022-09-09T05:37:02;15.60;99.90
2997;DHT22;1508;48.744;9.110;2022-09-09T05:39:48;15.80;99.90
2997;DHT22;1508;48.744;9.110;2022-09-09T05:42:34;15.80;99.90
2997;DHT22;1508;48.744;9.110;2022-09-09T05:45:20;15.80;99.90
2997;DHT22;1508;48.744;9.110;2022-09-09T05:48:06;15.90;99.90
2997;DHT22;1508;48.744;9.110;2022-09-09T05:50:55;16.00;99.90
2997;DHT22;1508;48.744;9.110;2022-09-09T05:53:41;16.00;99.90
2997;DHT22;1508;48.744;9.110;2022-09-09T05:56:28;16.10;99.90
2997;DHT22;1508;48.744;9.110;2022-09-09T05:59:14;16.20;99.90
2997;DHT22;1508;48.744;9.110;2022-09-09T06:02:00;16.30;99.90
2997;DHT22;1508;48.744;9.110;2022-09-09T06:04:46;16.30;99.90
2997;DHT22;1508;48.744;9.110;2022-09-09T06:07:32;16.30;99.90
2997;DHT22;1508;48.744;9.110;2022-09-09T06:10:18;16.40;99.90
2997;DHT22;1508;48.744;9.110;2022-09-09T06:13:03;16.50;99.90
2997;DHT22;1508;48.744;9.110;2022-09-09T06:15:51;16.70;99.90
2997;DHT22;1508;48.744;9.110;2022-09-09T06:18:37;16.80;99.90
2997;DHT22;1508;48.744;9.110;2022-09-09T06:21:28;17.10;99.90
2997;DHT22;1508;48.744;9.110;2022-09-09T06:24:14;17.30;99.90
2997;DHT22;1508;48.744;9.110;2022-09-09T06:27:00;17.30;99.90
2997;DHT22;1508;48.744;9.110;2022-09-09T06:29:46;17.40;99.90
2997;DHT22;1508;48.744;9.110;2022-09-09T06:32:32;17.40;99.90
2997;DHT22;1508;48.744;9.110;2022-09-09T06:35:18;17.30;99.90
2997;DHT22;1508;48.744;9.110;2022-09-09T06:38:03;17.40;99.90
2997;DHT22;1508;48.744;9.110;2022-09-09T06:40:53;17.40;99.90
2997;DHT22;1508;48.744;9.110;2022-09-09T06:43:39;17.40;99.90
2997;DHT22;1508;48.744;9.110;2022-09-09T06:46:30;17.50;99.90
2997;DHT22;1508;48.744;9.110;2022-09-09T06:49:16;17.50;99.90
2997;DHT22;1508;48.744;9.110;2022-09-09T06:52:02;17.60;99.90
2997;DHT22;1508;48.744;9.110;2022-09-09T06:54:48;17.60;99.90
2997;DHT22;1508;48.744;9.110;2022-09-09T06:57:33;17.70;99.90
2997;DHT22;1508;48.744;9.110;2022-09-09T07:00:19;17.80;99.90
2997;DHT22;1508;48.744;9.110;2022-09-09T07:03:05;17.90;99.90
2997;DHT22;1508;48.744;9.110;2022-09-09T07:05:55;18.00;99.90
2997;DHT22;1508;48.744;9.110;2022-09-09T07:08:41;18.10;99.90
2997;DHT22;1508;48.744;9.110;2022-09-09T07:11:29;18.00;99.90
2997;DHT22;1508;48.744;9.110;2022-09-09T07:14:15;17.90;99.90
2997;DHT22;1508;48.744;9.110;2022-09-09T07:17:01;17.80;99.90
2997;DHT22;1508;48.744;9.110;2022-09-09T07:19:47;17.90;99.90
2997;DHT22;1508;48.744;9.110;2022-09-09T07:22:32;18.00;99.90
2997;DHT22;1508;48.744;9.110;2022-09-09T07:25:18;18.30;99.90
2997;DHT22;1508;48.744;9.110;2022-09-09T07:28:04;18.50;99.90
2997;DHT22;1508;48.744;9.110;2022-09-09T07:31:00;18.80;99.90
2997;DHT22;1508;48.744;9.110;2022-09-09T07:33:47;18.80;99.90
2997;DHT22;1508;48.744;9.110;2022-09-09T07:36:35;18.70;99.90
2997;DHT22;1508;48.744;9.110;2022-09-09T07:39:21;18.80;99.90
2997;DHT22;1508;48.744;9.110;2022-09-09T07:42:07;19.10;99.90
2997;DHT22;1508;48.744;9.110;2022-09-09T07:44:53;19.20;99.90
2997;DHT22;1508;48.744;9.110;2022-09-09T07:47:39;19.50;99.90
2997;DHT22;1508;48.744;9.110;2022-09-09T07:50:25;19.70;99.90
2997;DHT22;1508;48.744;9.110;2022-09-09T07:53:11;19.40;99.90
2997;DHT22;1508;48.744;9.110;2022-09-09T07:56:09;19.20;99.90
2997;DHT22;1508;48.744;9.110;2022-09-09T07:58:56;19.40;99.90
2997;DHT22;1508;48.744;9.110;2022-09-09T08:01:47;19.60;99.90
2997;DHT22;1508;48.744;9.110;2022-09-09T08:04:33;20.00;99.90
2997;DHT22;1508;48.744;9.110;2022-09-09T08:07:19;20.50;99.90
2997;DHT22;1508;48.744;9.110;2022-09-09T08:10:05;20.60;99.90
2997;DHT22;1508;48.744;9.110;2022-09-09T08:12:51;20.70;99.90
2997;DHT22;1508;48.744;9.110;2022-09-09T08:15:37;20.80;99.90
2997;DHT22;1508;48.744;9.110;2022-09-09T08:18:23;20.90;99.90
2997;DHT22;1508;48.744;9.110;2022-09-09T08:21:11;21.00;99.90
2997;DHT22;1508;48.744;9.110;2022-09-09T08:23:59;21.10;99.90
2997;DHT22;1508;48.744;9.110;2022-09-09T08:26:47;21.40;99.90
2997;DHT22;1508;48.744;9.110;2022-09-09T08:29:33;21.50;99.90
2997;DHT22;1508;48.744;9.110;2022-09-09T08:32:18;21.70;99.90
2997;DHT22;1508;48.744;9.110;2022-09-09T08:35:05;21.90;99.90
2997;DHT22;1508;48.744;9.110;2022-09-09T08:37:54;21.80;99.90
2997;DHT22;1508;48.744;9.110;2022-09-09T08:40:43;22.00;99.90
2997;DHT22;1508;48.744;9.110;2022-09-09T08:43:32;22.20;99.90
2997;DHT22;1508;48.744;9.110;2022-09-09T08:46:32;22.00;99.90
2997;DHT22;1508;48.744;9.110;2022-09-09T08:53:00;22.10;99.90
2997;DHT22;1508;48.744;9.110;2022-09-09T08:55:55;21.80;99.90
2997;DHT22;1508;48.744;9.110;2022-09-09T08:58:49;22.00;99.90
2997;DHT22;1508;48.744;9.110;2022-09-09T09:04:45;22.40;99.90
2997;DHT22;1508;48.744;9.110;2022-09-09T09:10:47;21.80;99.90
2997;DHT22;1508;48.744;9.110;2022-09-09T09:17:04;21.60;99.90
2997;DHT22;1508;48.744;9.110;2022-09-09T09:19:51;21.40;99.90
2997;DHT22;1508;48.744;9.110;2022-09-09T09:22:51;21.30;99.90
2997;DHT22;1508;48.744;9.110;2022-09-09T09:25:41;21.20;99.90
2997;DHT22;1508;48.744;9.110;2022-09-09T09:28:31;20.90;99.90
2997;DHT22;1508;48.744;9.110;2022-09-09T09:31:18;20.70;99.90
2997;DHT22;1508;48.744;9.110;2022-09-09T09:34:07;20.40;99.90
2997;DHT22;1508;48.744;9.110;2022-09-09T09:36:59;20.50;99.90
2997;DHT22;1508;48.744;9.110;2022-09-09T09:39:45;20.80;99.90
2997;DHT22;1508;48.744;9.110;2022-09-09T09:42:31;21.20;99.90
2997;DHT22;1508;48.744;9.110;2022-09-09T09:45:27;21.50;99.90
2997;DHT22;1508;48.744;9.110;2022-09-09T09:48:14;21.80;99.90
2997;DHT22;1508;48.744;9.110;2022-09-09T09:51:05;21.90;99.90
2997;DHT22;1508;48.744;9.110;2022-09-09T09:53:53;21.60;99.90
2997;DHT22;1508;48.744;9.110;2022-09-09T09:56:40;21.40;99.90
2997;DHT22;1508;48.744;9.110;2022-09-09T10:02:23;21.30;99.90
2997;DHT22;1508;48.744;9.110;2022-09-09T10:08:12;21.90;99.90
2997;DHT22;1508;48.744;9.110;2022-09-09T10:11:04;22.10;99.90
2997;DHT22;1508;48.744;9.110;2022-09-09T10:20:00;22.80;99.90
2997;DHT22;1508;48.744;9.110;2022-09-09T10:26:12;23.10;99.90
2997;DHT22;1508;48.744;9.110;2022-09-09T10:35:34;23.30;99.90
2997;DHT22;1508;48.744;9.110;2022-09-09T10:38:29;23.70;99.90
2997;DHT22;1508;48.744;9.110;2022-09-09T10:44:51;23.60;99.90
2997;DHT22;1508;48.744;9.110;2022-09-09T10:50:53;23.50;99.90
2997;DHT22;1508;48.744;9.110;2022-09-09T10:56:43;23.50;99.90
2997;DHT22;1508;48.744;9.110;2022-09-09T10:59:33;24.00;99.90
2997;DHT22;1508;48.744;9.110;2022-09-09T11:02:28;23.90;99.90
2997;DHT22;1508;48.744;9.110;2022-09-09T11:05:25;24.00;99.90
2997;DHT22;1508;48.744;9.110;2022-09-09T11:08:19;23.90;99.90
2997;DHT22;1508;48.744;9.110;2022-09-09T11:11:32;23.60;99.90
2997;DHT22;1508;48.744;9.110;2022-09-09T11:14:39;23.30;99.90
2997;DHT22;1508;48.744;9.110;2022-09-09T11:17:36;23.20;99.90
2997;DHT22;1508;48.744;9.110;2022-09-09T11:20:25;22.30;99.90
2997;DHT22;1508;48.744;9.110;2022-09-09T11:23:22;21.50;99.90
2997;DHT22;1508;48.744;9.110;2022-09-09T11:26:15;20.80;99.90
2997;DHT22;1508;48.744;9.110;2022-09-09T11:38:51;19.40;99.90
2997;DHT22;1508;48.744;9.110;2022-09-09T11:41:37;19.30;99.90
2997;DHT22;1508;48.744;9.110;2022-09-09T11:44:28;19.40;99.90
2997;DHT22;1508;48.744;9.110;2022-09-09T11:47:35;19.60;99.90
2997;DHT22;1508;48.744;9.110;2022-09-09T11:56:12;19.60;99.90
2997;DHT22;1508;48.744;9.110;2022-09-09T11:59:16;20.00;99.90
2997;DHT22;1508;48.744;9.110;2022-09-09T12:02:27;20.10;99.90
2997;DHT22;1508;48.744;9.110;2022-09-09T12:05:13;20.10;99.90
2997;DHT22;1508;48.744;9.110;2022-09-09T12:08:00;20.00;99.90
2997;DHT22;1508;48.744;9.110;2022-09-09T12:10:58;20.40;99.90
2997;DHT22;1508;48.744;9.110;2022-09-09T12:13:53;20.40;99.90
2997;DHT22;1508;48.744;9.110;2022-09-09T12:16:39;20.60;99.90
2997;DHT22;1508;48.744;9.110;2022-09-09T12:19:25;20.80;99.90
2997;DHT22;1508;48.744;9.110;2022-09-09T12:22:16;21.10;99.90
2997;DHT22;1508;48.744;9.110;2022-09-09T12:25:32;21.40;99.90
2997;DHT22;1508;48.744;9.110;2022-09-09T12:28:24;21.50;99.90
2997;DHT22;1508;48.744;9.110;2022-09-09T12:40:25;21.40;99.90
2997;DHT22;1508;48.744;9.110;2022-09-09T12:43:19;21.10;99.90
2997;DHT22;1508;48.744;9.110;2022-09-09T12:46:17;20.80;99.90
2997;DHT22;1508;48.744;9.110;2022-09-09T12:49:03;20.50;99.90
2997;DHT22;1508;48.744;9.110;2022-09-09T12:51:50;20.50;99.90
2997;DHT22;1508;48.744;9.110;2022-09-09T12:54:36;20.60;99.90
2997;DHT22;1508;48.744;9.110;2022-09-09T12:57:24;20.90;99.90
2997;DHT22;1508;48.744;9.110;2022-09-09T13:00:14;21.10;99.90
2997;DHT22;1508;48.744;9.110;2022-09-09T13:03:14;21.20;99.90
2997;DHT22;1508;48.744;9.110;2022-09-09T13:06:16;21.00;99.90
2997;DHT22;1508;48.744;9.110;2022-09-09T13:09:04;20.60;99.90
2997;DHT22;1508;48.744;9.110;2022-09-09T13:11:53;20.60;99.90
2997;DHT22;1508;48.744;9.110;2022-09-09T13:14:44;20.70;99.90
2997;DHT22;1508;48.744;9.110;2022-09-09T13:17:30;20.90;99.90
2997;DHT22;1508;48.744;9.110;2022-09-09T13:20:18;21.20;99.90
2997;DHT22;1508;48.744;9.110;2022-09-09T13:23:04;21.40;99.90
2997;DHT22;1508;48.744;9.110;2022-09-09T13:25:54;21.70;99.90
2997;DHT22;1508;48.744;9.110;2022-09-09T13:28:40;22.10;99.90
2997;DHT22;1508;48.744;9.110;2022-09-09T13:31:32;22.30;99.90
2997;DHT22;1508;48.744;9.110;2022-09-09T13:34:33;22.20;99.90
2997;DHT22;1508;48.744;9.110;2022-09-09T13:37:35;22.20;99.90
2997;DHT22;1508;48.744;9.110;2022-09-09T13:40:22;22.20;99.90
2997;DHT22;1508;48.744;9.110;2022-09-09T13:43:20;22.00;99.90
2997;DHT22;1508;48.744;9.110;2022-09-09T13:46:33;22.00;99.90
2997;DHT22;1508;48.744;9.110;2022-09-09T13:49:22;22.20;99.90
2997;DHT22;1508;48.744;9.110;2022-09-09T13:52:18;22.40;99.90
2997;DHT22;1508;48.744;9.110;2022-09-09T13:55:04;22.50;99.90
2997;DHT22;1508;48.744;9.110;2022-09-09T13:57:55;22.80;99.90
2997;DHT22;1508;48.744;9.110;2022-09-09T14:00:41;23.00;99.90
2997;DHT22;1508;48.744;9.110;2022-09-09T14:03:27;23.20;99.90
2997;DHT22;1508;48.744;9.110;2022-09-09T14:06:13;23.50;99.90
2997;DHT22;1508;48.744;9.110;2022-09-09T14:08:59;23.50;99.90
2997;DHT22;1508;48.744;9.110;2022-09-09T14:11:45;23.20;99.90
2997;DHT22;1508;48.744;9.110;2022-09-09T14:14:31;23.20;99.90
2997;DHT22;1508;48.744;9.110;2022-09-09T14:17:16;23.00;99.90
2997;DHT22;1508;48.744;9.110;2022-09-09T14:20:06;23.20;99.90
2997;DHT22;1508;48.744;9.110;2022-09-09T14:22:52;23.10;99.90
2997;DHT22;1508;48.744;9.110;2022-09-09T14:25:43;22.80;99.90
2997;DHT22;1508;48.744;9.110;2022-09-09T14:28:29;22.60;99.90
2997;DHT22;1508;48.744;9.110;2022-09-09T14:31:14;22.60;99.90
2997;DHT22;1508;48.744;9.110;2022-09-09T14:34:00;22.70;99.90
2997;DHT22;1508;48.744;9.110;2022-09-09T14:36:46;22.70;99.90
2997;DHT22;1508;48.744;9.110;2022-09-09T14:39:32;22.40;99.90
2997;DHT22;1508;48.744;9.110;2022-09-09T14:42:18;22.20;99.90
2997;DHT22;1508;48.744;9.110;2022-09-09T14:45:04;22.20;99.90
2997;DHT22;1508;48.744;9.110;2022-09-09T14:47:51;22.40;99.90
2997;DHT22;1508;48.744;9.110;2022-09-09T14:50:36;22.40;99.90
2997;DHT22;1508;48.744;9.110;2022-09-09T14:53:22;22.20;99.90
2997;DHT22;1508;48.744;9.110;2022-09-09T14:56:14;22.10;99.90
2997;DHT22;1508;48.744;9.110;2022-09-09T14:59:01;22.30;99.90
2997;DHT22;1508;48.744;9.110;2022-09-09T15:01:47;22.50;99.90
2997;DHT22;1508;48.744;9.110;2022-09-09T15:04:32;22.00;99.90
2997;DHT22;1508;48.744;9.110;2022-09-09T15:07:18;21.50;99.90
2997;DHT22;1508;48.744;9.110;2022-09-09T15:10:05;21.30;99.90
2997;DHT22;1508;48.744;9.110;2022-09-09T15:12:51;21.20;99.90
2997;DHT22;1508;48.744;9.110;2022-09-09T15:15:36;21.30;99.90
2997;DHT22;1508;48.744;9.110;2022-09-09T15:18:22;21.10;99.90
2997;DHT22;1508;48.744;9.110;2022-09-09T15:21:11;21.10;99.90
2997;DHT22;1508;48.744;9.110;2022-09-09T15:23:57;21.30;99.90
2997;DHT22;1508;48.744;9.110;2022-09-09T15:26:43;21.60;99.90
2997;DHT22;1508;48.744;9.110;2022-09-09T15:29:29;21.90;99.90
2997;DHT22;1508;48.744;9.110;2022-09-09T15:32:15;22.10;99.90
2997;DHT22;1508;48.744;9.110;2022-09-09T15:35:01;22.20;99.90
2997;DHT22;1508;48.744;9.110;2022-09-09T15:37:47;21.80;99.90
2997;DHT22;1508;48.744;9.110;2022-09-09T15:40:32;21.40;99.90
2997;DHT22;1508;48.744;9.110;2022-09-09T15:43:18;21.30;99.90
2997;DHT22;1508;48.744;9.110;2022-09-09T15:51:59;21.20;99.90
2997;DHT22;1508;48.744;9.110;2022-09-09T15:54:45;21.10;99.90
2997;DHT22;1508;48.744;9.110;2022-09-09T15:57:31;21.00;99.90
2997;DHT22;1508;48.744;9.110;2022-09-09T16:00:17;21.00;99.90
2997;DHT22;1508;48.744;9.110;2022-09-09T16:03:03;21.00;99.90
2997;DHT22;1508;48.744;9.110;2022-09-09T16:05:51;21.00;99.90
2997;DHT22;1508;48.744;9.110;2022-09-09T16:08:42;21.00;99.90
2997;DHT22;1508;48.744;9.110;2022-09-09T16:11:30;20.70;99.90
2997;DHT22;1508;48.744;9.110;2022-09-09T16:14:16;20.80;99.90
2997;DHT22;1508;48.744;9.110;2022-09-09T16:17:03;20.80;99.90
2997;DHT22;1508;48.744;9.110;2022-09-09T16:19:49;20.70;99.90
2997;DHT22;1508;48.744;9.110;2022-09-09T16:22:35;20.50;99.90
2997;DHT22;1508;48.744;9.110;2022-09-09T16:25:21;20.30;99.90
2997;DHT22;1508;48.744;9.110;2022-09-09T16:28:07;20.10;99.90
2997;DHT22;1508;48.744;9.110;2022-09-09T16:30:53;19.90;99.90
2997;DHT22;1508;48.744;9.110;2022-09-09T16:33:39;19.80;99.90
2997;DHT22;1508;48.744;9.110;2022-09-09T16:36:28;19.60;99.90
2997;DHT22;1508;48.744;9.110;2022-09-09T16:39:16;19.40;99.90
2997;DHT22;1508;48.744;9.110;2022-09-09T16:42:02;19.00;99.90
2997;DHT22;1508;48.744;9.110;2022-09-09T16:44:48;18.70;99.90
2997;DHT22;1508;48.744;9.110;2022-09-09T16:47:34;18.70;99.90
2997;DHT22;1508;48.744;9.110;2022-09-09T16:50:19;18.60;99.90
2997;DHT22;1508;48.744;9.110;2022-09-09T16:53:05;18.50;99.90
2997;DHT22;1508;48.744;9.110;2022-09-09T16:55:51;18.40;99.90
2997;DHT22;1508;48.744;9.110;2022-09-09T16:58:37;18.20;99.90
2997;DHT22;1508;48.744;9.110;2022-09-09T17:01:27;18.30;99.90
2997;DHT22;1508;48.744;9.110;2022-09-09T17:04:16;18.10;99.90
2997;DHT22;1508;48.744;9.110;2022-09-09T17:07:02;18.10;99.90
2997;DHT22;1508;48.744;9.110;2022-09-09T17:09:48;18.00;99.90
2997;DHT22;1508;48.744;9.110;2022-09-09T17:12:34;17.90;99.90
2997;DHT22;1508;48.744;9.110;2022-09-09T17:15:20;17.70;99.90
2997;DHT22;1508;48.744;9.110;2022-09-09T17:18:06;17.60;99.90
2997;DHT22;1508;48.744;9.110;2022-09-09T17:20:51;17.50;99.90
2997;DHT22;1508;48.744;9.110;2022-09-09T17:23:37;17.40;99.90
2997;DHT22;1508;48.744;9.110;2022-09-09T17:26:26;17.40;99.90
2997;DHT22;1508;48.744;9.110;2022-09-09T17:29:12;17.40;99.90
2997;DHT22;1508;48.744;9.110;2022-09-09T17:31:58;17.30;99.90
2997;DHT22;1508;48.744;9.110;2022-09-09T17:34:44;17.20;99.90
2997;DHT22;1508;48.744;9.110;2022-09-09T17:37:30;17.10;99.90
2997;DHT22;1508;48.744;9.110;2022-09-09T17:40:16;17.10;99.90
2997;DHT22;1508;48.744;9.110;2022-09-09T17:43:01;17.00;99.90
2997;DHT22;1508;48.744;9.110;2022-09-09T17:45:47;17.00;99.90
2997;DHT22;1508;48.744;9.110;2022-09-09T17:48:33;16.90;99.90
2997;DHT22;1508;48.744;9.110;2022-09-09T17:51:22;16.90;99.90
2997;DHT22;1508;48.744;9.110;2022-09-09T17:54:11;16.80;99.90
2997;DHT22;1508;48.744;9.110;2022-09-09T17:56:57;16.80;99.90
2997;DHT22;1508;48.744;9.110;2022-09-09T17:59:43;16.80;99.90
2997;DHT22;1508;48.744;9.110;2022-09-09T18:02:29;16.70;99.90
2997;DHT22;1508;48.744;9.110;2022-09-09T18:05:14;16.70;99.90
2997;DHT22;1508;48.744;9.110;2022-09-09T18:08:00;16.80;99.90
2997;DHT22;1508;48.744;9.110;2022-09-09T18:10:52;16.80;99.90
2997;DHT22;1508;48.744;9.110;2022-09-09T18:13:38;16.80;99.90
2997;DHT22;1508;48.744;9.110;2022-09-09T18:16:24;16.90;99.90
2997;DHT22;1508;48.744;9.110;2022-09-09T18:19:12;16.90;99.90
2997;DHT22;1508;48.744;9.110;2022-09-09T18:21:58;17.00;99.90
2997;DHT22;1508;48.744;9.110;2022-09-09T18:24:44;17.00;99.90
2997;DHT22;1508;48.744;9.110;2022-09-09T18:27:30;17.00;99.90
2997;DHT22;1508;48.744;9.110;2022-09-09T18:30:16;17.10;99.90
2997;DHT22;1508;48.744;9.110;2022-09-09T18:33:02;17.10;99.90
2997;DHT22;1508;48.744;9.110;2022-09-09T18:35:48;17.10;99.90
2997;DHT22;1508;48.744;9.110;2022-09-09T18:38:34;17.20;99.90
2997;DHT22;1508;48.744;9.110;2022-09-09T18:41:26;17.30;99.90
2997;DHT22;1508;48.744;9.110;2022-09-09T18:44:14;17.30;99.90
2997;DHT22;1508;48.744;9.110;2022-09-09T18:47:00;17.30;99.90
2997;DHT22;1508;48.744;9.110;2022-09-09T18:49:47;17.30;99.90
2997;DHT22;1508;48.744;9.110;2022-09-09T18:52:32;17.30;99.90
2997;DHT22;1508;48.744;9.110;2022-09-09T18:55:18;17.20;99.90
2997;DHT22;1508;48.744;9.110;2022-09-09T18:58:04;17.20;99.90
2997;DHT22;1508;48.744;9.110;2022-09-09T19:00:50;17.20;99.90
2997;DHT22;1508;48.744;9.110;2022-09-09T19:03:36;17.20;99.90
2997;DHT22;1508;48.744;9.110;2022-09-09T19:06:29;17.20;99.90
2997;DHT22;1508;48.744;9.110;2022-09-09T19:09:17;17.20;99.90
2997;DHT22;1508;48.744;9.110;2022-09-09T19:12:03;17.20;99.90
2997;DHT22;1508;48.744;9.110;2022-09-09T19:14:48;17.20;99.90
2997;DHT22;1508;48.744;9.110;2022-09-09T19:17:34;17.10;99.90
2997;DHT22;1508;48.744;9.110;2022-09-09T19:20:20;17.10;99.90
2997;DHT22;1508;48.744;9.110;2022-09-09T19:23:06;17.00;99.90
2997;DHT22;1508;48.744;9.110;2022-09-09T19:25:52;16.90;99.90
2997;DHT22;1508;48.744;9.110;2022-09-09T19:28:38;16.90;99.90
2997;DHT22;1508;48.744;9.110;2022-09-09T19:31:24;16.90;99.90
2997;DHT22;1508;48.744;9.110;2022-09-09T19:34:10;16.80;99.90
2997;DHT22;1508;48.744;9.110;2022-09-09T19:36:56;16.70;99.90
2997;DHT22;1508;48.744;9.110;2022-09-09T19:39:42;16.70;99.90
2997;DHT22;1508;48.744;9.110;2022-09-09T19:42:27;16.70;99.90
2997;DHT22;1508;48.744;9.110;2022-09-09T19:45:13;16.60;99.90
2997;DHT22;1508;48.744;9.110;2022-09-09T19:47:59;16.50;99.90
2997;DHT22;1508;48.744;9.110;2022-09-09T19:50:45;16.50;99.90
2997;DHT22;1508;48.744;9.110;2022-09-09T19:53:34;16.50;99.90
2997;DHT22;1508;48.744;9.110;2022-09-09T19:56:21;16.40;99.90
2997;DHT22;1508;48.744;9.110;2022-09-09T19:59:09;16.40;99.90
2997;DHT22;1508;48.744;9.110;2022-09-09T20:01:55;16.30;99.90
2997;DHT22;1508;48.744;9.110;2022-09-09T20:04:41;16.30;99.90
2997;DHT22;1508;48.744;9.110;2022-09-09T20:07:27;16.30;99.90
2997;DHT22;1508;48.744;9.110;2022-09-09T20:10:13;16.20;99.90
2997;DHT22;1508;48.744;9.110;2022-09-09T20:12:58;16.20;99.90
2997;DHT22;1508;48.744;9.110;2022-09-09T20:15:44;16.20;99.90
2997;DHT22;1508;48.744;9.110;2022-09-09T20:18:33;16.20;99.90
2997;DHT22;1508;48.744;9.110;2022-09-09T20:21:33;16.10;99.90
2997;DHT22;1508;48.744;9.110;2022-09-09T20:24:20;16.10;99.90